createdAt,value
2023-04-29T00:01:42.123Z,5.25
2023-04-29T00:04:09.564Z,5.22
2023-04-29T00:06:37.389Z,5.18
2023-04-29T00:09:04.687Z,5.15
2023-04-29T00:11:31.724Z,5.11
2023-04-29T00:13:58.601Z,5.04
2023-04-29T00:16:26.206Z,4.98
2023-04-29T00:18:53.150Z,4.98
2023-04-29T00:21:21.050Z,5.05
2023-04-29T00:23:48.046Z,5.07
2023-04-29T00:26:15.241Z,5.08
2023-04-29T00:28:43.178Z,5.07
2023-04-29T00:31:10.389Z,5.04
2023-04-29T00:33:37.295Z,5.01
2023-04-29T00:36:04.712Z,4.97
2023-04-29T00:38:31.607Z,4.94
2023-04-29T00:40:58.475Z,4.90
2023-04-29T00:43:25.333Z,4.86
2023-04-29T00:45:52.332Z,4.80
2023-04-29T00:48:19.369Z,4.82
2023-04-29T00:50:46.287Z,4.89
2023-04-29T00:53:13.419Z,4.89
2023-04-29T00:55:41.161Z,4.86
2023-04-29T00:58:10.046Z,4.82
2023-04-29T01:00:37.218Z,4.80
2023-04-29T01:03:05.325Z,4.75
2023-04-29T01:05:33.025Z,4.69
2023-04-29T01:08:29.164Z,4.62
2023-04-29T01:11:16.500Z,4.55
2023-04-29T01:13:50.156Z,4.49
2023-04-29T01:16:42.727Z,4.47
2023-04-29T01:19:20.038Z,4.50
2023-04-29T01:21:50.991Z,4.52
2023-04-29T01:24:18.121Z,4.53
2023-04-29T01:26:52.709Z,4.53
2023-04-29T01:29:45.872Z,4.52
2023-04-29T01:32:15.682Z,4.50
2023-04-29T01:35:19.113Z,4.43
2023-04-29T01:38:05.434Z,4.35
2023-04-29T01:40:37.704Z,4.29
2023-04-29T01:43:11.898Z,4.24
2023-04-29T01:45:41.431Z,4.17
2023-04-29T01:48:09.122Z,4.11
2023-04-29T01:50:36.026Z,4.11
2023-04-29T01:53:12.131Z,4.17
2023-04-29T01:55:39.393Z,4.20
2023-04-29T01:58:20.998Z,4.20
2023-04-29T02:01:14.348Z,4.15
2023-04-29T02:03:41.639Z,4.11
2023-04-29T02:06:10.013Z,4.07
2023-04-29T02:08:37.487Z,4.01
2023-04-29T02:11:04.455Z,3.92
2023-04-29T02:13:34.047Z,3.83
2023-04-29T02:16:08.870Z,3.79
2023-04-29T02:18:36.405Z,3.81
2023-04-29T02:21:04.564Z,3.86
2023-04-29T02:23:34.018Z,3.87
2023-04-29T02:26:01.823Z,3.86
2023-04-29T02:28:28.995Z,3.85
2023-04-29T02:30:55.968Z,3.83
2023-04-29T02:33:22.895Z,3.81
2023-04-29T02:35:49.787Z,3.78
2023-04-29T02:38:16.885Z,3.75
2023-04-29T02:40:46.512Z,3.72
2023-04-29T02:43:13.366Z,3.71
2023-04-29T02:45:40.317Z,3.73
2023-04-29T02:48:07.319Z,3.82
2023-04-29T02:50:34.436Z,3.85
2023-04-29T02:53:01.537Z,3.84
2023-04-29T02:55:28.486Z,3.82
2023-04-29T02:57:58.251Z,3.79
2023-04-29T03:00:25.503Z,3.75
2023-04-29T03:02:52.544Z,3.70
2023-04-29T03:05:19.740Z,3.67
2023-04-29T03:07:46.728Z,3.62
2023-04-29T03:10:14.008Z,3.56
2023-04-29T03:12:41.099Z,3.59
2023-04-29T03:15:08.377Z,3.68
2023-04-29T03:17:35.409Z,3.71
2023-04-29T03:20:02.460Z,3.72
2023-04-29T03:22:29.539Z,3.71
2023-04-29T03:24:56.519Z,3.71
2023-04-29T03:27:23.464Z,3.70
2023-04-29T03:32:03.008Z,3.66
2023-04-29T03:34:30.505Z,3.59
2023-04-29T03:37:14.142Z,3.54
2023-04-29T03:39:46.295Z,3.50
2023-04-29T03:42:14.104Z,3.51
2023-04-29T03:44:41.039Z,3.59
2023-04-29T03:47:09.497Z,3.62
2023-04-29T03:49:36.536Z,3.63
2023-04-29T03:52:04.846Z,3.63
2023-04-29T03:54:31.699Z,3.64
2023-04-29T03:56:58.720Z,3.64
2023-04-29T03:59:25.800Z,3.64
2023-04-29T04:01:54.387Z,3.61
2023-04-29T04:04:22.180Z,3.61
2023-04-29T04:06:51.774Z,3.60
2023-04-29T04:09:20.681Z,3.64
2023-04-29T04:11:47.776Z,3.70
2023-04-29T04:14:14.887Z,3.78
2023-04-29T04:16:41.997Z,3.85
2023-04-29T04:19:09.849Z,3.90
2023-04-29T04:21:37.921Z,3.97
2023-04-29T04:24:07.112Z,4.04
2023-04-29T04:26:35.359Z,4.10
2023-04-29T04:29:08.436Z,4.17
2023-04-29T04:31:46.918Z,4.24
2023-04-29T04:34:14.500Z,4.33
2023-04-29T04:36:42.357Z,4.48
2023-04-29T04:39:09.436Z,4.61
2023-04-29T04:41:36.331Z,4.70
2023-04-29T04:44:03.454Z,4.79
2023-04-29T04:46:40.181Z,4.87
2023-04-29T04:49:16.017Z,4.96
2023-04-29T04:51:49.134Z,5.06
2023-04-29T04:54:15.983Z,5.10
2023-04-29T04:56:43.188Z,5.04
2023-04-29T04:59:10.099Z,4.92
2023-04-29T05:01:37.645Z,4.90
2023-04-29T05:04:04.774Z,4.98
2023-04-29T05:06:31.841Z,5.15
2023-04-29T05:08:59.474Z,5.27
2023-04-29T05:11:26.393Z,5.35
2023-04-29T05:14:08.934Z,5.40
2023-04-29T05:16:36.017Z,5.46
2023-04-29T05:19:02.937Z,5.55
2023-04-29T05:21:32.551Z,5.69
2023-04-29T05:23:59.715Z,5.81
2023-04-29T05:26:26.611Z,5.88
2023-04-29T05:28:55.516Z,6.04
2023-04-29T05:31:22.535Z,6.24
2023-04-29T05:33:49.641Z,6.41
2023-04-29T05:36:16.792Z,6.52
2023-04-29T05:38:45.372Z,6.60
2023-04-29T05:41:14.239Z,6.67
2023-04-29T05:44:00.027Z,6.82
2023-04-29T05:46:27.076Z,6.92
2023-04-29T05:48:54.095Z,7.02
2023-04-29T05:51:21.041Z,7.17
2023-04-29T05:53:49.092Z,7.30
2023-04-29T05:56:16.672Z,7.41
2023-04-29T05:58:43.553Z,7.52
2023-04-29T06:01:10.683Z,7.64
2023-04-29T06:03:37.874Z,7.78
2023-04-29T06:06:43.837Z,7.99
2023-04-29T06:09:46.268Z,8.21
2023-04-29T06:12:13.457Z,8.36
2023-04-29T06:14:42.372Z,8.48
2023-04-29T06:17:09.279Z,8.59
2023-04-29T06:19:36.323Z,8.65
2023-04-29T06:22:03.365Z,8.75
2023-04-29T06:24:30.950Z,8.86
2023-04-29T06:26:58.103Z,8.91
2023-04-29T06:29:26.216Z,8.94
2023-04-29T06:31:54.418Z,8.98
2023-04-29T06:34:21.481Z,9.04
2023-04-29T06:37:08.719Z,9.13
2023-04-29T06:40:08.591Z,9.29
2023-04-29T06:42:58.882Z,9.42
2023-04-29T06:46:00.950Z,9.56
2023-04-29T06:48:39.727Z,9.68
2023-04-29T06:51:07.149Z,9.77
2023-04-29T06:53:36.806Z,9.87
2023-04-29T06:56:03.804Z,9.95
2023-04-29T06:58:30.825Z,9.98
2023-04-29T07:00:57.760Z,10.02
2023-04-29T07:03:24.791Z,10.12
2023-04-29T07:05:51.898Z,10.23
2023-04-29T07:08:18.910Z,10.30
2023-04-29T07:10:54.607Z,10.39
2023-04-29T07:13:24.095Z,10.48
2023-04-29T07:15:51.159Z,10.53
2023-04-29T07:18:18.451Z,10.61
2023-04-29T07:20:46.118Z,10.70
2023-04-29T07:23:13.173Z,10.78
2023-04-29T07:25:41.264Z,10.87
2023-04-29T07:28:11.021Z,10.95
2023-04-29T07:30:37.858Z,11.04
2023-04-29T07:33:04.890Z,11.16
2023-04-29T07:35:32.077Z,11.34
2023-04-29T07:37:58.955Z,11.47
2023-04-29T07:40:26.397Z,11.56
2023-04-29T07:42:56.614Z,11.61
2023-04-29T07:45:23.456Z,11.67
2023-04-29T07:47:50.482Z,11.79
2023-04-29T07:50:17.488Z,11.88
2023-04-29T07:52:44.414Z,11.96
2023-04-29T07:55:11.314Z,12.01
2023-04-29T07:57:38.839Z,12.08
2023-04-29T08:00:07.203Z,12.12
2023-04-29T08:02:42.723Z,12.22
2023-04-29T08:05:12.201Z,12.33
2023-04-29T08:07:39.346Z,12.36
2023-04-29T08:10:06.868Z,12.33
2023-04-29T08:12:37.118Z,12.33
2023-04-29T08:15:05.042Z,12.33
2023-04-29T08:17:32.078Z,12.37
2023-04-29T08:20:01.423Z,12.41
2023-04-29T08:22:28.284Z,12.45
2023-04-29T08:24:55.191Z,12.53
2023-04-29T08:27:22.085Z,12.66
2023-04-29T08:29:49.230Z,12.76
2023-04-29T08:35:08.640Z,13.00
2023-04-29T08:37:35.504Z,13.08
2023-04-29T08:40:03.801Z,13.22
2023-04-29T08:42:34.365Z,13.31
2023-04-29T08:45:01.594Z,13.38
2023-04-29T08:47:31.933Z,13.45
2023-04-29T08:50:05.983Z,13.52
2023-04-29T08:52:33.119Z,13.63
2023-04-29T08:55:02.520Z,13.64
2023-04-29T08:57:30.258Z,13.61
2023-04-29T08:59:59.584Z,13.54
2023-04-29T09:02:26.486Z,13.53
2023-04-29T09:05:06.088Z,13.55
2023-04-29T09:07:33.307Z,13.66
2023-04-29T09:10:00.183Z,13.77
2023-04-29T09:12:27.090Z,13.86
2023-04-29T09:14:54.192Z,13.93
2023-04-29T09:17:42.387Z,13.93
2023-04-29T09:20:21.841Z,13.91
2023-04-29T09:22:52.955Z,13.93
2023-04-29T09:25:20.878Z,14.02
2023-04-29T09:27:47.864Z,14.08
2023-04-29T09:30:16.637Z,14.13
2023-04-29T09:32:45.170Z,14.14
2023-04-29T09:35:21.329Z,14.18
2023-04-29T09:37:48.245Z,14.23
2023-04-29T09:40:31.761Z,14.32
2023-04-29T09:42:59.249Z,14.35
2023-04-29T09:45:58.778Z,14.39
2023-04-29T09:48:27.129Z,14.52
2023-04-29T09:51:02.276Z,14.59
2023-04-29T09:53:31.769Z,14.63
2023-04-29T09:56:02.451Z,14.64
2023-04-29T09:58:40.408Z,14.59
2023-04-29T10:01:07.586Z,14.51
2023-04-29T10:03:36.054Z,14.47
2023-04-29T10:06:04.640Z,14.48
2023-04-29T10:08:31.901Z,14.46
2023-04-29T10:11:02.924Z,14.48
2023-04-29T10:13:29.914Z,14.53
2023-04-29T10:16:27.852Z,14.63
2023-04-29T10:18:56.540Z,14.73
2023-04-29T10:21:27.790Z,14.79
2023-04-29T10:23:54.755Z,14.85
2023-04-29T10:26:21.621Z,14.89
2023-04-29T10:28:48.631Z,14.98
2023-04-29T10:31:16.883Z,15.05
2023-04-29T10:33:46.037Z,15.14
2023-04-29T10:36:13.198Z,15.21
2023-04-29T10:38:41.822Z,15.19
2023-04-29T10:41:10.696Z,15.20
2023-04-29T10:43:37.603Z,15.21
2023-04-29T10:46:16.718Z,15.27
2023-04-29T10:48:44.387Z,15.35
2023-04-29T10:51:11.283Z,15.40
2023-04-29T10:54:07.654Z,15.44
2023-04-29T10:56:38.708Z,15.46
2023-04-29T10:59:08.357Z,15.41
2023-04-29T11:01:51.926Z,15.40
2023-04-29T11:04:20.246Z,15.40
2023-04-29T11:06:54.843Z,15.41
2023-04-29T11:09:27.645Z,15.46
2023-04-29T11:12:03.685Z,15.48
2023-04-29T11:14:38.950Z,15.52
2023-04-29T11:17:09.405Z,15.51
2023-04-29T11:19:45.562Z,15.49
2023-04-29T11:22:18.783Z,15.45
2023-04-29T11:25:02.231Z,15.45
2023-04-29T11:27:33.490Z,15.51
2023-04-29T11:30:00.951Z,15.57
2023-04-29T11:32:29.038Z,15.64
2023-04-29T11:34:56.528Z,15.70
2023-04-29T11:37:26.210Z,15.74
2023-04-29T11:39:59.599Z,15.81
2023-04-29T11:42:27.342Z,15.82
2023-04-29T11:44:58.063Z,15.78
2023-04-29T11:47:29.560Z,15.71
2023-04-29T11:50:07.984Z,15.55
2023-04-29T11:52:39.194Z,15.41
2023-04-29T11:55:09.031Z,15.33
2023-04-29T11:57:36.746Z,15.23
2023-04-29T12:00:07.289Z,15.21
2023-04-29T12:02:35.812Z,15.21
2023-04-29T12:07:35.044Z,15.19
2023-04-29T12:10:01.967Z,15.14
2023-04-29T12:12:31.086Z,15.10
2023-04-29T12:15:00.846Z,15.11
2023-04-29T12:17:30.429Z,15.14
2023-04-29T12:19:59.547Z,15.19
2023-04-29T12:22:39.165Z,15.24
2023-04-29T12:25:07.426Z,15.26
2023-04-29T12:27:35.834Z,15.27
2023-04-29T12:30:05.375Z,15.27
2023-04-29T12:32:34.444Z,15.26
2023-04-29T12:35:06.363Z,15.27
2023-04-29T12:37:36.342Z,15.29
2023-04-29T12:40:03.970Z,15.34
2023-04-29T12:42:34.532Z,15.32
2023-04-29T12:45:01.463Z,15.29
2023-04-29T12:47:33.900Z,15.27
2023-04-29T12:50:01.028Z,15.30
2023-04-29T12:52:28.390Z,15.36
2023-04-29T12:54:56.575Z,15.38
2023-04-29T12:57:25.237Z,15.35
2023-04-29T12:59:52.582Z,15.32
2023-04-29T13:02:19.653Z,15.30
2023-04-29T13:04:49.304Z,15.29
2023-04-29T13:07:19.482Z,15.26
2023-04-29T13:09:46.618Z,15.26
2023-04-29T13:12:13.494Z,15.27
2023-04-29T13:14:40.444Z,15.31
2023-04-29T13:17:07.346Z,15.34
2023-04-29T13:19:49.616Z,15.40
2023-04-29T13:22:18.424Z,15.40
2023-04-29T13:24:45.980Z,15.45
2023-04-29T13:27:12.967Z,15.50
2023-04-29T13:29:40.207Z,15.52
2023-04-29T13:32:08.379Z,15.53
2023-04-29T13:34:36.057Z,15.60
2023-04-29T13:37:02.951Z,15.67
2023-04-29T13:39:29.921Z,15.72
2023-04-29T13:41:59.279Z,15.74
2023-04-29T13:44:33.227Z,15.73
2023-04-29T13:47:06.955Z,15.68
2023-04-29T13:56:15.557Z,15.63
2023-04-29T14:10:32.907Z,15.36
2023-04-29T14:12:59.898Z,15.31
2023-04-29T14:15:27.034Z,15.30
2023-04-29T14:17:55.252Z,15.31
2023-04-29T14:20:22.393Z,15.31
2023-04-29T14:22:49.246Z,15.31
2023-04-29T14:25:16.246Z,15.29
2023-04-29T14:27:43.155Z,15.24
2023-04-29T14:30:10.496Z,15.17
2023-04-29T14:32:37.449Z,15.11
2023-04-29T14:35:04.986Z,15.08
2023-04-29T14:37:31.888Z,15.04
2023-04-29T14:39:58.826Z,14.98
2023-04-29T14:42:25.752Z,14.96
2023-04-29T14:44:54.560Z,14.97
2023-04-29T14:47:21.968Z,14.98
2023-04-29T14:49:48.849Z,14.99
2023-04-29T14:52:16.208Z,14.99
2023-04-29T14:54:43.113Z,15.02
2023-04-29T14:57:10.864Z,15.04
2023-04-29T14:59:37.776Z,15.04
2023-04-29T15:02:04.810Z,15.08
2023-04-29T15:04:31.850Z,15.12
2023-04-29T15:06:58.822Z,15.13
2023-04-29T15:09:27.019Z,15.11
2023-04-29T15:11:53.959Z,15.07
2023-04-29T15:14:21.019Z,15.02
2023-04-29T15:16:49.118Z,14.97
2023-04-29T15:19:16.127Z,14.93
2023-04-29T15:21:43.037Z,14.88
2023-04-29T15:24:09.944Z,14.87
2023-04-29T15:26:37.269Z,14.86
2023-04-29T15:29:04.249Z,14.85
2023-04-29T15:31:31.204Z,14.83
2023-04-29T15:33:58.636Z,14.80
2023-04-29T15:36:32.513Z,14.77
2023-04-29T15:39:04.408Z,14.73
2023-04-29T15:41:31.271Z,14.70
2023-04-29T15:43:58.263Z,14.67
2023-04-29T15:49:31.199Z,14.66
2023-04-29T15:51:59.168Z,14.62
2023-04-29T15:54:26.232Z,14.61
2023-04-29T15:56:53.432Z,14.58
2023-04-29T15:59:20.432Z,14.56
2023-04-29T16:01:47.403Z,14.54
2023-04-29T16:04:16.896Z,14.52
2023-04-29T16:06:43.960Z,14.48
2023-04-29T16:09:12.384Z,14.44
2023-04-29T16:11:39.352Z,14.40
2023-04-29T16:14:06.518Z,14.38
2023-04-29T16:16:33.493Z,14.36
2023-04-29T16:19:00.388Z,14.31
2023-04-29T16:21:27.756Z,14.27
2023-04-29T16:23:54.722Z,14.22
2023-04-29T16:26:21.670Z,14.18
2023-04-29T16:28:48.537Z,14.15
2023-04-29T16:31:15.809Z,14.11
2023-04-29T16:33:42.830Z,14.08
2023-04-29T16:36:09.916Z,14.05
2023-04-29T16:38:38.344Z,14.02
2023-04-29T16:48:45.899Z,13.93
2023-04-29T16:51:12.879Z,13.90
2023-04-29T16:53:39.843Z,13.88
2023-04-29T16:56:07.520Z,13.86
2023-04-29T16:58:41.060Z,13.82
2023-04-29T17:01:09.383Z,13.77
2023-04-29T17:03:36.676Z,13.71
2023-04-29T17:06:05.069Z,13.67
2023-04-29T17:08:32.038Z,13.62
2023-04-29T17:11:03.816Z,13.57
2023-04-29T17:13:30.760Z,13.53
2023-04-29T17:15:57.764Z,13.48
2023-04-29T17:18:28.272Z,13.43
2023-04-29T17:20:55.892Z,13.38
2023-04-29T17:23:22.743Z,13.34
2023-04-29T17:25:49.736Z,13.29
2023-04-29T17:28:21.346Z,13.24
2023-04-29T17:30:59.749Z,13.20
2023-04-29T17:33:35.060Z,13.15
2023-04-29T17:36:03.595Z,13.11
2023-04-29T17:38:30.738Z,13.09
2023-04-29T17:40:57.940Z,13.06
2023-04-29T17:43:25.232Z,13.04
2023-04-29T17:45:52.256Z,13.00
2023-04-29T17:48:20.502Z,12.99
2023-04-29T17:50:49.543Z,12.96
2023-04-29T17:53:16.831Z,12.92
2023-04-29T17:55:47.154Z,12.90
2023-04-29T17:58:14.068Z,12.88
2023-04-29T18:00:41.866Z,12.85
2023-04-29T18:03:08.896Z,12.80
2023-04-29T18:05:35.902Z,12.76
2023-04-29T18:08:02.900Z,12.72
2023-04-29T18:10:30.358Z,12.67
2023-04-29T18:12:57.533Z,12.62
2023-04-29T18:15:24.456Z,12.57
2023-04-29T18:17:56.300Z,12.52
2023-04-29T18:20:23.393Z,12.47
2023-04-29T18:22:50.740Z,12.42
2023-04-29T18:25:17.754Z,12.37
2023-04-29T18:27:44.577Z,12.34
2023-04-29T18:30:11.749Z,12.32
2023-04-29T18:32:41.419Z,12.30
2023-04-29T18:35:10.625Z,12.26
2023-04-29T18:37:37.738Z,12.22
2023-04-29T18:40:05.784Z,12.18
2023-04-29T18:42:33.224Z,12.14
2023-04-29T18:45:00.167Z,12.10
2023-04-29T18:47:27.175Z,12.07
2023-04-29T18:49:57.517Z,12.04
2023-04-29T18:52:24.631Z,12.00
2023-04-29T18:54:57.008Z,11.95
2023-04-29T18:57:26.829Z,11.91
2023-04-29T18:59:56.903Z,11.87
2023-04-29T19:02:27.732Z,11.83
2023-04-29T19:04:57.633Z,11.79
2023-04-29T19:07:24.650Z,11.72
2023-04-29T19:09:51.668Z,11.67
2023-04-29T19:12:18.605Z,11.62
2023-04-29T19:14:45.446Z,11.58
2023-04-29T19:17:12.274Z,11.55
2023-04-29T19:19:39.240Z,11.52
2023-04-29T19:22:09.010Z,11.48
2023-04-29T19:24:37.165Z,11.44
2023-04-29T19:27:04.217Z,11.41
2023-04-29T19:29:35.819Z,11.38
2023-04-29T19:32:03.678Z,11.33
2023-04-29T19:34:30.947Z,11.29
2023-04-29T19:36:57.990Z,11.24
2023-04-29T19:39:25.498Z,11.21
2023-04-29T19:41:52.364Z,11.18
2023-04-29T19:44:19.226Z,11.16
2023-04-29T19:46:46.866Z,11.13
2023-04-29T19:51:53.186Z,11.10
2023-04-29T19:54:20.129Z,11.04
2023-04-29T19:56:47.027Z,10.98
2023-04-29T19:59:13.911Z,10.93
2023-04-29T20:01:41.384Z,10.89
2023-04-29T20:04:09.227Z,10.85
2023-04-29T20:06:37.751Z,10.81
2023-04-29T20:09:04.808Z,10.76
2023-04-29T20:11:31.995Z,10.70
2023-04-29T20:13:58.999Z,10.64
2023-04-29T20:16:27.878Z,10.57
2023-04-29T20:18:54.879Z,10.52
2023-04-29T20:21:21.763Z,10.47
2023-04-29T20:23:49.257Z,10.42
2023-04-29T20:26:17.321Z,10.37
2023-04-29T20:28:49.863Z,10.31
2023-04-29T20:31:18.000Z,10.25
2023-04-29T20:33:44.813Z,10.20
2023-04-29T20:36:12.047Z,10.15
2023-04-29T20:38:39.361Z,10.07
2023-04-29T20:41:06.295Z,9.99
2023-04-29T20:43:33.204Z,9.94
2023-04-29T20:46:00.867Z,9.89
2023-04-29T20:48:28.470Z,9.83
2023-04-29T20:50:55.660Z,9.76
2023-04-29T20:53:22.669Z,9.70
2023-04-29T20:55:49.681Z,9.64
2023-04-29T20:58:16.547Z,9.59
2023-04-29T21:00:43.787Z,9.53
2023-04-29T21:03:10.895Z,9.49
2023-04-29T21:05:37.806Z,9.42
2023-04-29T21:08:04.993Z,9.34
2023-04-29T21:10:31.923Z,9.28
2023-04-29T21:12:58.980Z,9.25
2023-04-29T21:15:27.066Z,9.21
2023-04-29T21:17:54.018Z,9.17
2023-04-29T21:20:21.932Z,9.13
2023-04-29T21:22:48.954Z,9.10
2023-04-29T21:25:15.925Z,9.08
2023-04-29T21:27:42.874Z,9.04
2023-04-29T21:30:10.295Z,9.01
2023-04-29T21:32:37.222Z,8.97
2023-04-29T21:35:04.263Z,8.93
2023-04-29T21:37:31.284Z,8.88
2023-04-29T21:40:00.431Z,8.84
2023-04-29T21:42:27.301Z,8.81
2023-04-29T21:44:55.573Z,8.78
2023-04-29T21:47:22.495Z,8.74
2023-04-29T21:49:50.499Z,8.71
2023-04-29T21:52:17.572Z,8.68
2023-04-29T21:54:44.676Z,8.64
2023-04-29T21:57:11.797Z,8.60
2023-04-29T21:59:38.849Z,8.57
2023-04-29T22:02:21.985Z,8.54
2023-04-29T22:04:49.980Z,8.48
2023-04-29T22:07:17.442Z,8.41
2023-04-29T22:09:49.565Z,8.36
2023-04-29T22:12:17.970Z,8.29
2023-04-29T22:14:45.018Z,8.25
2023-04-29T22:17:13.030Z,8.27
2023-04-29T22:19:40.048Z,8.32
2023-04-29T22:22:07.880Z,8.38
2023-04-29T22:24:34.854Z,8.38
2023-04-29T22:27:03.615Z,8.36
2023-04-29T22:29:30.764Z,8.34
2023-04-29T22:31:57.840Z,8.32
2023-04-29T22:34:24.985Z,8.29
2023-04-29T22:36:51.853Z,8.26
2023-04-29T22:39:18.836Z,8.22
2023-04-29T22:41:45.832Z,8.19
2023-04-29T22:44:12.804Z,8.17
2023-04-29T22:46:39.734Z,8.12
2023-04-29T22:49:06.800Z,8.06
2023-04-29T22:51:33.686Z,8.01
2023-04-29T22:54:00.658Z,7.98
2023-04-29T22:56:28.994Z,7.95
2023-04-29T22:58:56.051Z,7.98
2023-04-29T23:01:23.008Z,8.04
2023-04-29T23:03:50.058Z,8.09
2023-04-29T23:06:17.015Z,8.10
2023-04-29T23:08:44.688Z,8.09
2023-04-29T23:11:12.167Z,8.06
2023-04-29T23:13:39.400Z,8.04
2023-04-29T23:16:08.568Z,8.03
2023-04-29T23:18:37.130Z,8.01
2023-04-29T23:21:04.366Z,7.97
2023-04-29T23:23:31.492Z,7.92
2023-04-29T23:25:58.457Z,7.88
2023-04-29T23:28:25.495Z,7.82
2023-04-29T23:30:52.417Z,7.76
2023-04-29T23:33:19.282Z,7.77
2023-04-29T23:35:50.504Z,7.82
2023-04-29T23:38:18.068Z,7.84
2023-04-29T23:40:46.456Z,7.83
2023-04-29T23:43:15.057Z,7.82
2023-04-29T23:45:44.268Z,7.80
2023-04-29T23:48:12.244Z,7.77
2023-04-29T23:50:39.245Z,7.74
2023-04-29T23:53:06.385Z,7.68
2023-04-29T23:55:33.586Z,7.61
2023-04-29T23:58:00.801Z,7.55
